LFRZ

Saint-Nazaire-Montoir Airport

Saint-Nazaire/Montoir, France
TAF LFRZ 212300Z 2200/2224 21010KT 8000 SCT020 BKN050 BECMG 2200/2202 4500 -RA TEMPO 2204/2206 2500 RA BKN007 BECMG 2206/2208 32010KT 9999 SCT025 PROB30 TEMPO 2215/2224 4000 SHRA BKN020TCU
Issued Valid From Valid To
Jan-21 @ 23:00 UTC
(an hour ago)
Jan-22 @ 00:00 UTC
(6 minutes ago)
Jan-23 @ 00:00 UTC
(in 24 hours)
Jan-22 @ 00:00 to Jan-23 @ 00:00
TAF LFRZ 212300Z 2200/2224 21010KT 8000 SCT020 BKN050
Wind Visibility Clouds
210° at 10 knots 7,998 meters
  • Scattered at 2,000' AGL
  • Broken at 5,000' AGL
Becoming Jan-22 @ 00:00 to Jan-22 @ 06:00
BECMG 2200/2202 4500 -RA
Wind Visibility Clouds Conditions
210° at 10 knots 4,506 meters
  • Scattered at 2,000' AGL
  • Broken at 5,000' AGL
  • Light Rain
Temporary Jan-22 @ 04:00 to Jan-22 @ 06:00
TEMPO 2204/2206 2500 RA BKN007
Visibility Clouds Conditions
2,494 meters
  • Broken at 700' AGL
  • Rain
Becoming Jan-22 @ 06:00 to Jan-23 @ 00:00
BECMG 2206/2208 32010KT 9999 SCT025
Wind Visibility Clouds Conditions
320° at 10 knots 10,000+ meters
  • Scattered at 2,500' AGL
  • Light Rain
Temporary  (Probability 30%) Jan-22 @ 15:00 to Jan-23 @ 00:00
PROB30 TEMPO 2215/2224 4000 SHRA BKN020TCU
Visibility Clouds Conditions
4,007 meters
  • Broken at 2,000' AGL
  • Rain
TAF LFRZ 212300Z 2200/2224 21010KT 8000 SCT020 BKN050 BECMG 2200/2202 4500 -RA TEMPO 2204/2206 2500 RA BKN007 BECMG 2206/2208 32010KT 9999 SCT025 PROB30 TEMPO 2215/2224 4000 SHRA BKN020TCU
Issued Jan-21 @ 23:00 UTC
(an hour ago)
Valid From Jan-22 @ 00:00 UTC
(6 minutes ago)
Valid To Jan-23 @ 00:00 UTC
(in 24 hours)
Jan-22 @ 00:00 - Jan-23 @ 00:00
Wind Visibility
210° at 10 knots 7,998 meters
Clouds
  • Scattered at 2,000' AGL
  • Broken at 5,000' AGL
Becoming Jan-22 @ 00:00 - Jan-22 @ 06:00
Wind Visibility
210° at 10 knots 4,506 meters
Clouds
  • Scattered at 2,000' AGL
  • Broken at 5,000' AGL
Conditions
  • Light Rain
Temporary Jan-22 @ 04:00 - Jan-22 @ 06:00
Clouds
  • Broken at 700' AGL
Conditions
  • Rain
Becoming Jan-22 @ 06:00 - Jan-23 @ 00:00
Wind Visibility
320° at 10 knots 10,000+ meters
Clouds
  • Scattered at 2,500' AGL
Conditions
  • Light Rain
Probability 30% Temporary Jan-22 @ 15:00 - Jan-23 @ 00:00
Clouds
  • Broken at 2,000' AGL
Conditions
  • Rain